createdAt,value
2022-12-09T00:01:30.787Z,-0.84
2022-12-09T00:04:00.454Z,-0.77
2022-12-09T00:06:29.227Z,-1.02
2022-12-09T00:08:58.079Z,-1.12
2022-12-09T00:11:26.323Z,-0.91
2022-12-09T00:13:55.667Z,-0.61
2022-12-09T00:16:24.657Z,-0.87
2022-12-09T00:18:53.617Z,-1.15
2022-12-09T00:21:24.198Z,-1.17
2022-12-09T00:23:53.703Z,-0.75
2022-12-09T00:26:22.456Z,-1.25
2022-12-09T00:28:51.137Z,-1.22
2022-12-09T00:31:20.292Z,-0.43
2022-12-09T00:33:48.706Z,-1.02
2022-12-09T00:36:17.508Z,-1.09
2022-12-09T00:38:46.978Z,-0.95
2022-12-09T00:41:16.036Z,-1.16
2022-12-09T00:43:44.745Z,-1.36
2022-12-09T00:46:15.806Z,-1.42
2022-12-09T00:48:45.557Z,-1.44
2022-12-09T00:51:15.022Z,-1.31
2022-12-09T00:53:43.444Z,-1.30
2022-12-09T00:56:12.825Z,-1.41
2022-12-09T00:58:40.977Z,-1.43
2022-12-09T01:01:09.029Z,-1.74
2022-12-09T01:03:37.903Z,-1.17
2022-12-09T01:06:22.689Z,-1.48
2022-12-09T01:08:51.394Z,-1.80
2022-12-09T01:11:22.025Z,-1.61
2022-12-09T01:13:50.991Z,-1.58
2022-12-09T01:16:21.323Z,-1.54
2022-12-09T01:18:50.137Z,-1.98
2022-12-09T01:21:18.295Z,-1.52
2022-12-09T01:23:47.083Z,-1.41
2022-12-09T01:26:15.407Z,-1.67
2022-12-09T01:28:44.989Z,-1.73
2022-12-09T01:31:15.545Z,-1.71
2022-12-09T01:33:44.710Z,-1.79
2022-12-09T01:36:14.537Z,-1.83
2022-12-09T01:38:43.168Z,-1.81
2022-12-09T01:41:11.190Z,-2.20
2022-12-09T01:43:39.423Z,-2.00
2022-12-09T01:46:09.023Z,-1.97
2022-12-09T01:48:39.001Z,-2.04
2022-12-09T01:51:11.162Z,-2.02
2022-12-09T01:53:39.962Z,-2.27
2022-12-09T01:56:11.996Z,-2.01
2022-12-09T01:58:40.374Z,-2.21
2022-12-09T02:01:10.320Z,-2.28
2022-12-09T02:03:38.867Z,-2.51
2022-12-09T02:06:07.531Z,-2.37
2022-12-09T02:08:35.730Z,-2.48
2022-12-09T02:11:08.560Z,-2.46
2022-12-09T02:13:45.569Z,-2.67
2022-12-09T02:16:18.267Z,-2.62
2022-12-09T02:18:49.658Z,-2.61
2022-12-09T02:21:20.378Z,-2.60
2022-12-09T02:23:54.357Z,-2.50
2022-12-09T02:26:25.985Z,-2.44
2022-12-09T02:29:18.443Z,-2.60
2022-12-09T02:32:14.728Z,-2.32
2022-12-09T02:34:51.984Z,-2.36
2022-12-09T02:37:24.722Z,-2.32
2022-12-09T02:40:00.767Z,-2.26
2022-12-09T02:42:34.024Z,-2.17
2022-12-09T02:45:07.543Z,-2.34
2022-12-09T02:47:45.005Z,-2.38
2022-12-09T02:50:20.179Z,-2.51
2022-12-09T02:52:52.717Z,-2.80
2022-12-09T02:55:23.678Z,-2.39
2022-12-09T02:58:00.673Z,-2.62
2022-12-09T03:00:34.166Z,-2.66
2022-12-09T03:03:05.560Z,-1.88
2022-12-09T03:05:45.629Z,-2.44
2022-12-09T03:08:23.074Z,-2.63
2022-12-09T03:10:57.231Z,-2.61
2022-12-09T03:13:36.614Z,-2.75
2022-12-09T03:16:11.508Z,-2.72
2022-12-09T03:18:46.495Z,-2.94
2022-12-09T03:21:21.304Z,-2.84
2022-12-09T03:23:54.442Z,-2.90
2022-12-09T03:26:23.440Z,-2.70
2022-12-09T03:28:53.514Z,-2.65
2022-12-09T03:31:23.233Z,-2.10
2022-12-09T03:33:53.704Z,-2.68
2022-12-09T03:36:24.312Z,-3.08
2022-12-09T03:38:52.821Z,-3.18
2022-12-09T03:41:24.879Z,-2.43
2022-12-09T03:43:56.735Z,-3.24
2022-12-09T03:46:25.282Z,-3.05
2022-12-09T03:48:55.870Z,-2.95
2022-12-09T03:51:27.417Z,-3.17
2022-12-09T03:53:59.441Z,-2.99
2022-12-09T03:56:31.845Z,-2.96
2022-12-09T03:59:01.852Z,-2.99
2022-12-09T04:01:31.299Z,-2.95
2022-12-09T04:03:59.547Z,-3.15
2022-12-09T04:06:29.079Z,-3.05
2022-12-09T04:09:02.161Z,-3.33
2022-12-09T04:11:31.607Z,-3.31
2022-12-09T04:13:59.731Z,-3.25
2022-12-09T04:16:27.834Z,-3.14
2022-12-09T04:18:55.950Z,-3.08
2022-12-09T04:21:24.028Z,-3.29
2022-12-09T04:23:53.420Z,-3.02
2022-12-09T04:26:22.595Z,-3.31
2022-12-09T04:28:51.316Z,-2.96
2022-12-09T04:31:22.163Z,-3.16
2022-12-09T04:33:50.319Z,-3.07
2022-12-09T04:36:19.171Z,-3.15
2022-12-09T04:38:47.807Z,-3.47
2022-12-09T04:41:17.570Z,-3.46
2022-12-09T04:43:45.831Z,-3.35
2022-12-09T04:46:14.854Z,-3.20
2022-12-09T04:48:43.173Z,-3.05
2022-12-09T04:51:11.905Z,-3.00
2022-12-09T04:53:40.138Z,-3.09
2022-12-09T04:56:09.479Z,-3.13
2022-12-09T04:58:39.077Z,-3.23
2022-12-09T05:01:08.495Z,-3.33
2022-12-09T05:03:37.802Z,-3.14
2022-12-09T05:06:13.431Z,-3.11
2022-12-09T05:08:42.500Z,-3.12
2022-12-09T05:11:10.791Z,-3.02
2022-12-09T05:13:40.286Z,-3.02
2022-12-09T05:16:15.711Z,-2.96
2022-12-09T05:18:44.813Z,-2.98
2022-12-09T05:21:13.834Z,-3.00
2022-12-09T05:23:42.369Z,-2.82
2022-12-09T05:26:11.461Z,-2.89
2022-12-09T05:28:41.149Z,-3.37
2022-12-09T05:31:13.191Z,-3.20
2022-12-09T05:33:42.199Z,-3.08
2022-12-09T05:36:11.088Z,-3.22
2022-12-09T05:38:39.814Z,-3.25
2022-12-09T05:41:08.389Z,-3.41
2022-12-09T05:43:37.752Z,-3.23
2022-12-09T05:46:07.839Z,-3.22
2022-12-09T05:48:36.817Z,-3.36
2022-12-09T05:51:06.551Z,-3.46
2022-12-09T05:53:35.316Z,-3.47
2022-12-09T05:56:04.167Z,-3.60
2022-12-09T05:58:32.620Z,-3.59
2022-12-09T06:01:04.320Z,-3.34
2022-12-09T06:03:34.202Z,-3.39
2022-12-09T06:06:07.356Z,-3.37
2022-12-09T06:08:36.226Z,-3.44
2022-12-09T06:11:05.652Z,-3.14
2022-12-09T06:13:34.120Z,-3.38
2022-12-09T06:16:04.386Z,-3.25
2022-12-09T06:18:34.616Z,-3.26
2022-12-09T06:21:06.414Z,-3.41
2022-12-09T06:23:36.702Z,-3.17
2022-12-09T06:26:07.575Z,-3.20
2022-12-09T06:28:36.036Z,-3.20
2022-12-09T06:31:05.014Z,-3.07
2022-12-09T06:33:54.372Z,-3.14
2022-12-09T06:36:23.699Z,-2.94
2022-12-09T06:38:52.691Z,-2.97
2022-12-09T06:41:21.303Z,-2.67
2022-12-09T06:43:50.221Z,-3.02
2022-12-09T06:46:23.350Z,-3.09
2022-12-09T06:48:54.911Z,-3.02
2022-12-09T06:51:26.801Z,-2.86
2022-12-09T06:53:55.630Z,-2.99
2022-12-09T06:56:27.002Z,-3.20
2022-12-09T06:58:55.475Z,-3.09
2022-12-09T07:01:26.115Z,-3.10
2022-12-09T07:03:58.285Z,-3.13
2022-12-09T07:06:29.586Z,-3.03
2022-12-09T07:09:00.146Z,-3.09
2022-12-09T07:11:29.681Z,-2.88
2022-12-09T07:13:58.972Z,-3.08
2022-12-09T07:16:27.682Z,-2.69
2022-12-09T07:18:58.357Z,-3.11
2022-12-09T07:21:27.141Z,-2.97
2022-12-09T07:23:56.008Z,-3.29
2022-12-09T07:26:24.894Z,-3.28
2022-12-09T07:28:53.765Z,-3.28
2022-12-09T07:31:25.341Z,-2.97
2022-12-09T07:33:56.425Z,-2.66
2022-12-09T07:36:30.945Z,-2.45
2022-12-09T07:39:01.108Z,-2.24
2022-12-09T07:41:30.302Z,-2.72
2022-12-09T07:43:59.204Z,-2.72
2022-12-09T07:46:28.752Z,-2.67
2022-12-09T07:48:58.645Z,-2.53
2022-12-09T07:51:29.566Z,-2.54
2022-12-09T07:53:58.877Z,-2.13
2022-12-09T07:56:28.637Z,-2.24
2022-12-09T07:58:58.176Z,-2.02
2022-12-09T08:01:27.843Z,-2.17
2022-12-09T08:03:57.251Z,-2.21
2022-12-09T08:06:27.385Z,-2.39
2022-12-09T08:08:58.509Z,-2.02
2022-12-09T08:11:28.634Z,-2.04
2022-12-09T08:13:58.474Z,-1.92
2022-12-09T08:16:27.014Z,-2.11
2022-12-09T08:18:56.443Z,-1.93
2022-12-09T08:21:25.724Z,-1.84
2022-12-09T08:23:54.412Z,-1.36
2022-12-09T08:26:24.998Z,-1.29
2022-12-09T08:28:54.239Z,-1.86
2022-12-09T08:31:24.417Z,-1.55
2022-12-09T08:33:53.297Z,-1.56
2022-12-09T08:36:23.092Z,-1.41
2022-12-09T08:38:51.668Z,-1.52
2022-12-09T08:41:21.454Z,-1.45
2022-12-09T08:43:51.302Z,-1.35
2022-12-09T08:46:19.717Z,-0.92
2022-12-09T08:48:48.162Z,-1.00
2022-12-09T08:51:16.534Z,-0.93
2022-12-09T08:53:45.006Z,-1.14
2022-12-09T08:56:14.702Z,-0.59
2022-12-09T08:58:43.447Z,-0.86
2022-12-09T09:01:17.433Z,-0.84
2022-12-09T09:03:47.085Z,-0.53
2022-12-09T09:06:16.327Z,-0.96
2022-12-09T09:08:47.791Z,-0.72
2022-12-09T09:11:17.072Z,-0.89
2022-12-09T09:13:46.199Z,-0.29
2022-12-09T09:16:16.890Z,-0.47
2022-12-09T09:18:47.505Z,-0.42
2022-12-09T09:21:17.660Z,-0.82
2022-12-09T09:23:48.789Z,-0.66
2022-12-09T09:26:17.896Z,-0.70
2022-12-09T09:28:46.581Z,-0.51
2022-12-09T09:31:15.975Z,0.18
2022-12-09T09:33:44.551Z,-0.49
2022-12-09T09:36:15.616Z,-0.70
2022-12-09T09:38:43.970Z,-0.42
2022-12-09T09:41:19.554Z,-0.30
2022-12-09T09:43:48.525Z,-0.67
2022-12-09T09:46:20.057Z,-0.34
2022-12-09T09:48:49.039Z,-0.21
2022-12-09T09:51:20.521Z,-0.11
2022-12-09T09:53:50.744Z,-0.24
2022-12-09T09:56:25.522Z,-0.31
2022-12-09T09:58:57.265Z,0.14
2022-12-09T10:01:27.826Z,-0.07
2022-12-09T10:04:01.693Z,-0.08
2022-12-09T10:06:36.542Z,-0.41
2022-12-09T10:09:15.106Z,-0.23
2022-12-09T10:11:53.237Z,0.08
2022-12-09T10:14:28.619Z,0.36
2022-12-09T10:17:02.384Z,0.67
2022-12-09T10:19:33.013Z,0.57
2022-12-09T10:22:12.101Z,0.98
2022-12-09T10:24:43.929Z,0.33
2022-12-09T10:27:15.997Z,0.89
2022-12-09T10:29:52.889Z,1.10
2022-12-09T10:32:22.432Z,0.69
2022-12-09T10:34:51.483Z,0.60
2022-12-09T10:37:25.939Z,1.04
2022-12-09T10:39:57.476Z,1.19
2022-12-09T10:42:44.814Z,0.96
2022-12-09T10:45:13.552Z,1.24
2022-12-09T10:47:42.955Z,1.30
2022-12-09T10:50:24.534Z,1.45
2022-12-09T10:52:54.701Z,1.44
2022-12-09T10:55:25.723Z,0.92
2022-12-09T10:58:10.377Z,1.64
2022-12-09T11:00:39.037Z,1.43
2022-12-09T11:03:24.679Z,0.67
2022-12-09T11:05:56.538Z,0.56
2022-12-09T11:08:26.590Z,0.49
2022-12-09T11:10:55.398Z,0.80
2022-12-09T11:13:28.793Z,0.81
2022-12-09T11:16:01.285Z,1.40
2022-12-09T11:18:31.248Z,1.44
2022-12-09T11:21:00.918Z,1.37
2022-12-09T11:23:30.962Z,0.88
2022-12-09T11:26:01.111Z,0.90
2022-12-09T11:28:31.050Z,1.41
2022-12-09T11:33:50.245Z,1.42
2022-12-09T11:36:20.628Z,1.27
2022-12-09T11:38:50.960Z,1.02
2022-12-09T11:41:34.848Z,0.94
2022-12-09T11:44:04.071Z,0.64
2022-12-09T11:46:33.450Z,0.79
2022-12-09T11:49:03.537Z,1.29
2022-12-09T11:51:33.893Z,1.94
2022-12-09T11:54:05.447Z,2.22
2022-12-09T11:56:34.055Z,2.15
2022-12-09T11:59:04.236Z,1.48
2022-12-09T12:01:39.146Z,0.74
2022-12-09T12:04:08.838Z,1.15
2022-12-09T12:06:43.280Z,0.87
2022-12-09T12:09:16.027Z,1.42
2022-12-09T12:11:46.499Z,1.52
2022-12-09T12:14:16.816Z,1.85
2022-12-09T12:16:49.965Z,2.26
2022-12-09T12:19:22.550Z,2.41
2022-12-09T12:21:57.002Z,1.56
2022-12-09T12:24:33.414Z,2.08
2022-12-09T12:27:08.373Z,1.59
2022-12-09T12:29:45.093Z,1.59
2022-12-09T12:32:19.719Z,2.00
2022-12-09T12:34:53.284Z,1.93
2022-12-09T12:37:30.109Z,2.08
2022-12-09T12:40:03.998Z,1.19
2022-12-09T12:42:35.387Z,1.30
2022-12-09T12:45:29.241Z,1.68
2022-12-09T12:48:02.777Z,1.33
2022-12-09T12:50:38.690Z,1.70
2022-12-09T12:53:13.093Z,1.90
2022-12-09T12:55:48.881Z,2.72
2022-12-09T12:58:31.273Z,2.79
2022-12-09T13:01:02.611Z,2.42
2022-12-09T13:03:34.801Z,2.53
2022-12-09T13:06:02.919Z,1.93
2022-12-09T13:08:36.046Z,2.56
2022-12-09T13:11:08.287Z,2.09
2022-12-09T13:13:39.493Z,2.22
2022-12-09T13:16:17.112Z,2.36
2022-12-09T13:18:45.433Z,2.30
2022-12-09T13:21:16.372Z,2.27
2022-12-09T13:23:56.342Z,2.13
2022-12-09T13:26:31.671Z,2.06
2022-12-09T13:29:04.520Z,1.80
2022-12-09T13:31:37.732Z,2.04
2022-12-09T13:34:18.098Z,2.20
2022-12-09T13:36:47.283Z,2.26
2022-12-09T13:39:32.420Z,2.21
2022-12-09T13:42:19.485Z,2.58
2022-12-09T13:44:47.628Z,2.00
2022-12-09T13:47:16.806Z,1.93
2022-12-09T13:49:52.837Z,1.93
2022-12-09T13:52:38.118Z,1.95
2022-12-09T13:55:18.296Z,1.90
2022-12-09T13:57:53.548Z,2.01
2022-12-09T14:00:21.869Z,1.82
2022-12-09T14:02:53.907Z,1.87
2022-12-09T14:05:24.855Z,2.53
2022-12-09T14:07:54.891Z,2.85
2022-12-09T14:10:36.519Z,2.94
2022-12-09T14:13:19.675Z,2.36
2022-12-09T14:15:48.638Z,2.46
2022-12-09T14:18:30.910Z,2.33
2022-12-09T14:21:17.780Z,2.16
2022-12-09T14:24:00.765Z,2.07
2022-12-09T14:26:35.313Z,2.32
2022-12-09T14:29:04.923Z,2.01
2022-12-09T14:31:46.720Z,2.15
2022-12-09T14:34:24.598Z,2.03
2022-12-09T14:36:59.009Z,1.82
2022-12-09T14:39:30.218Z,1.67
2022-12-09T14:42:00.039Z,1.72
2022-12-09T14:44:32.884Z,2.19
2022-12-09T14:47:13.649Z,2.15
2022-12-09T14:49:49.129Z,1.95
2022-12-09T14:52:22.127Z,2.14
2022-12-09T14:54:50.485Z,1.71
2022-12-09T14:57:24.614Z,1.61
2022-12-09T14:59:57.942Z,1.80
2022-12-09T15:02:27.107Z,1.85
2022-12-09T15:04:55.747Z,1.61
2022-12-09T15:07:25.097Z,1.82
2022-12-09T15:09:55.403Z,1.88
2022-12-09T15:12:26.238Z,2.41
2022-12-09T15:14:57.708Z,2.27
2022-12-09T15:17:29.864Z,1.97
2022-12-09T15:20:00.554Z,2.02
2022-12-09T15:22:31.143Z,2.44
2022-12-09T15:24:59.704Z,2.70
2022-12-09T15:27:27.718Z,2.48
2022-12-09T15:29:57.137Z,2.18
2022-12-09T15:32:26.907Z,2.37
2022-12-09T15:34:55.492Z,2.30
2022-12-09T15:37:25.836Z,2.37
2022-12-09T15:39:56.437Z,2.10
2022-12-09T15:42:27.638Z,2.25
2022-12-09T15:45:03.435Z,2.77
2022-12-09T15:47:34.785Z,2.18
2022-12-09T15:50:05.176Z,2.26
2022-12-09T15:52:35.912Z,2.06
2022-12-09T15:55:07.836Z,2.41
2022-12-09T15:57:36.642Z,2.38
2022-12-09T16:00:07.008Z,2.79
2022-12-09T16:02:38.576Z,2.03
2022-12-09T16:05:08.366Z,2.06
2022-12-09T16:07:36.563Z,2.24
2022-12-09T16:10:07.073Z,1.99
2022-12-09T16:12:36.457Z,2.00
2022-12-09T16:15:07.104Z,1.79
2022-12-09T16:17:38.207Z,1.80
2022-12-09T16:20:22.938Z,2.01
2022-12-09T16:22:51.373Z,1.93
2022-12-09T16:25:22.019Z,1.80
2022-12-09T16:27:51.926Z,2.15
2022-12-09T16:30:25.484Z,2.27
2022-12-09T16:32:54.195Z,2.69
2022-12-09T16:35:24.585Z,2.80
2022-12-09T16:38:14.415Z,2.40
2022-12-09T16:41:01.139Z,2.16
2022-12-09T16:43:30.448Z,2.01
2022-12-09T16:46:00.886Z,2.24
2022-12-09T16:48:30.186Z,2.05
2022-12-09T16:50:59.895Z,1.85
2022-12-09T16:53:31.017Z,1.90
2022-12-09T16:56:02.420Z,1.82
2022-12-09T16:58:31.056Z,1.77
2022-12-09T17:01:01.263Z,1.73
2022-12-09T17:03:33.611Z,1.89
2022-12-09T17:06:02.037Z,1.96
2022-12-09T17:08:32.043Z,1.86
2022-12-09T17:11:00.099Z,1.99
2022-12-09T17:13:28.146Z,2.37
2022-12-09T17:15:58.550Z,2.76
2022-12-09T17:18:31.026Z,2.83
2022-12-09T17:21:02.609Z,2.45
2022-12-09T17:23:36.089Z,2.66
2022-12-09T17:26:08.490Z,1.76
2022-12-09T17:28:36.554Z,2.48
2022-12-09T17:31:08.614Z,2.69
2022-12-09T17:33:40.525Z,2.81
2022-12-09T17:36:09.017Z,2.15
2022-12-09T17:38:37.173Z,1.68
2022-12-09T17:41:05.604Z,2.53
2022-12-09T17:43:33.748Z,2.75
2022-12-09T17:46:05.194Z,2.64
2022-12-09T17:48:34.015Z,1.75
2022-12-09T17:51:06.979Z,1.71
2022-12-09T17:53:36.301Z,1.78
2022-12-09T17:56:07.922Z,1.64
2022-12-09T17:58:36.293Z,1.79
2022-12-09T18:01:04.754Z,1.72
2022-12-09T18:03:55.076Z,1.91
2022-12-09T18:06:22.191Z,2.96
2022-12-09T18:08:50.314Z,2.68
2022-12-09T18:11:18.456Z,2.82
2022-12-09T18:13:46.618Z,3.05
2022-12-09T18:16:15.329Z,3.26
2022-12-09T18:18:44.002Z,2.81
2022-12-09T18:21:15.880Z,2.58
2022-12-09T18:23:46.105Z,2.07
2022-12-09T18:26:15.963Z,1.89
2022-12-09T18:28:44.167Z,1.79
2022-12-09T18:31:13.211Z,1.81
2022-12-09T18:33:41.869Z,1.68
2022-12-09T18:36:11.487Z,1.72
2022-12-09T18:38:40.289Z,1.64
2022-12-09T18:41:13.480Z,1.63
2022-12-09T18:43:42.765Z,1.72
2022-12-09T18:46:12.523Z,1.80
2022-12-09T18:48:40.782Z,1.81
2022-12-09T18:51:14.843Z,1.88
2022-12-09T18:53:43.493Z,2.21
2022-12-09T18:56:13.661Z,2.57
2022-12-09T18:59:05.312Z,2.02
2022-12-09T19:01:31.225Z,1.90
2022-12-09T19:04:00.354Z,1.73
2022-12-09T19:06:29.383Z,1.89
2022-12-09T19:08:58.772Z,2.00
2022-12-09T19:11:29.568Z,1.77
2022-12-09T19:13:58.453Z,1.91
2022-12-09T19:16:27.245Z,1.67
2022-12-09T19:18:56.067Z,1.75
2022-12-09T19:21:24.765Z,1.80
2022-12-09T19:23:53.041Z,1.86
2022-12-09T19:26:22.145Z,1.93
2022-12-09T19:28:53.032Z,1.55
2022-12-09T19:31:22.264Z,1.67
2022-12-09T19:33:50.544Z,1.93
2022-12-09T19:36:18.658Z,1.95
2022-12-09T19:38:46.732Z,1.76
2022-12-09T19:41:14.879Z,1.75
2022-12-09T19:43:43.014Z,1.72
2022-12-09T19:46:13.156Z,1.74
2022-12-09T19:48:41.975Z,1.82
2022-12-09T19:51:10.924Z,1.65
2022-12-09T19:53:39.521Z,1.51
2022-12-09T19:56:12.323Z,1.57
2022-12-09T19:58:44.122Z,1.44
2022-12-09T20:01:14.827Z,1.39
2022-12-09T20:03:44.450Z,1.34
2022-12-09T20:06:16.022Z,1.33
2022-12-09T20:08:44.449Z,1.36
2022-12-09T20:11:13.572Z,1.29
2022-12-09T20:13:41.940Z,1.33
2022-12-09T20:16:11.149Z,1.31
2022-12-09T20:18:41.033Z,1.37
2022-12-09T20:21:10.233Z,1.25
2022-12-09T20:23:42.313Z,1.31
2022-12-09T20:26:11.926Z,1.42
2022-12-09T20:28:40.769Z,1.40
2022-12-09T20:31:09.626Z,1.22
2022-12-09T20:33:38.233Z,1.37
2022-12-09T20:36:08.520Z,1.24
2022-12-09T20:38:37.502Z,1.22
2022-12-09T20:41:06.281Z,1.24
2022-12-09T20:43:39.437Z,1.36
2022-12-09T20:46:09.172Z,1.25
2022-12-09T20:48:43.539Z,1.31
2022-12-09T20:51:14.580Z,1.43
2022-12-09T20:53:43.821Z,1.38
2022-12-09T20:56:12.442Z,1.42
2022-12-09T20:58:41.492Z,1.40
2022-12-09T21:01:10.835Z,1.48
2022-12-09T21:03:39.332Z,1.30
2022-12-09T21:06:07.726Z,1.47
2022-12-09T21:08:37.730Z,1.48
2022-12-09T21:11:06.656Z,1.34
2022-12-09T21:13:37.681Z,1.30
2022-12-09T21:16:06.833Z,1.57
2022-12-09T21:18:35.770Z,1.57
2022-12-09T21:21:04.180Z,1.45
2022-12-09T21:23:34.166Z,1.48
2022-12-09T21:26:07.761Z,1.31
2022-12-09T21:28:36.093Z,1.32
2022-12-09T21:31:08.006Z,1.23
2022-12-09T21:33:36.633Z,1.32
2022-12-09T21:36:05.790Z,1.25
2022-12-09T21:38:33.851Z,1.25
2022-12-09T21:41:02.836Z,1.26
2022-12-09T21:43:32.322Z,1.76
2022-12-09T21:46:02.367Z,1.65
2022-12-09T21:48:30.578Z,1.31
2022-12-09T21:50:59.246Z,1.49
2022-12-09T21:53:27.537Z,1.60
2022-12-09T21:55:55.833Z,1.42
2022-12-09T21:58:24.032Z,1.83
2022-12-09T22:02:37.081Z,1.70
2022-12-09T22:05:05.998Z,1.64
2022-12-09T22:07:34.306Z,1.45
2022-12-09T22:10:02.327Z,1.46
2022-12-09T22:12:30.431Z,1.36
2022-12-09T22:14:58.864Z,1.41
2022-12-09T22:17:29.484Z,1.34
2022-12-09T22:20:33.396Z,1.32
2022-12-09T22:22:47.308Z,1.29
2022-12-09T22:25:15.483Z,1.54
2022-12-09T22:27:43.519Z,1.31
2022-12-09T22:30:12.060Z,1.32
2022-12-09T22:32:42.152Z,1.35
2022-12-09T22:35:13.827Z,1.59
2022-12-09T22:37:44.384Z,1.45
2022-12-09T22:40:12.836Z,1.30
2022-12-09T22:42:40.925Z,1.45
2022-12-09T22:45:09.214Z,1.30
2022-12-09T22:47:37.342Z,1.29
2022-12-09T22:50:06.096Z,0.97
2022-12-09T22:52:35.706Z,1.20
2022-12-09T22:55:03.788Z,1.10
2022-12-09T22:57:31.811Z,1.10
2022-12-09T22:59:59.917Z,1.07
2022-12-09T23:02:28.106Z,1.09
2022-12-09T23:04:56.244Z,1.08
2022-12-09T23:07:24.261Z,1.00
2022-12-09T23:09:53.758Z,0.94
2022-12-09T23:12:24.813Z,0.93
2022-12-09T23:14:52.886Z,0.97
2022-12-09T23:17:20.925Z,0.83
2022-12-09T23:19:48.985Z,1.03
2022-12-09T23:22:17.001Z,1.10
2022-12-09T23:24:48.659Z,1.01
2022-12-09T23:27:18.063Z,1.10
2022-12-09T23:29:46.160Z,1.20
2022-12-09T23:32:14.258Z,1.03
2022-12-09T23:34:42.348Z,0.99
2022-12-09T23:37:10.406Z,0.99
2022-12-09T23:39:38.561Z,1.09
2022-12-09T23:42:06.612Z,1.04
2022-12-09T23:44:38.285Z,1.02
2022-12-09T23:47:06.357Z,1.05
2022-12-09T23:49:34.338Z,0.94
2022-12-09T23:52:02.927Z,0.88
2022-12-09T23:54:31.124Z,0.71
2022-12-09T23:57:01.205Z,0.87
2022-12-09T23:59:29.281Z,0.81
